Time;durP1;ratioP1;P1;durP2;ratioP2;P2;SDS_P1;SDS_P2;PMS_P1;PMS_P2;Temp;Humidity;BMP_temperature;BMP_pressure;BME280_temperature;BME280_humidity;BME280_pressure;Samples;Min_cycle;Max_cycle;Signal;HPM_P1;HPM_P2
2023/02/17 00:00:52;;;;;;;;;;;12.50;99.90;;;;;;6220205;23;19909;-81
2023/02/17 00:03:18;;;;;;;;;;;12.50;99.90;;;;;;6221058;23;20359;-82
2023/02/17 00:05:44;;;;;;;;;;;12.50;99.90;;;;;;6195226;23;19937;-80
2023/02/17 00:08:10;;;;;;;;;;;12.60;99.90;;;;;;6195266;23;19963;-80
2023/02/17 00:10:35;;;;;;;;;;;12.60;99.90;;;;;;6220364;23;19913;-80
2023/02/17 00:13:03;;;;;;;;;;;12.50;99.90;;;;;;6194964;23;19912;-80
2023/02/17 00:15:29;;;;;;;;;;;12.50;99.90;;;;;;6220874;23;19921;-80
2023/02/17 00:17:57;;;;;;;;;;;12.50;99.90;;;;;;6195592;23;20266;-81
2023/02/17 00:20:22;;;;;;;;;;;12.50;99.90;;;;;;6195343;23;19984;-81
2023/02/17 00:22:48;;;;;;;;;;;12.50;99.90;;;;;;6220751;23;19905;-80
2023/02/17 00:25:13;;;;;;;;;;;12.50;99.90;;;;;;6195114;23;19913;-81
2023/02/17 00:27:38;;;;;;;;;;;12.50;99.90;;;;;;6220101;22;19905;-78
2023/02/17 00:30:04;;;;;;;;;;;12.50;99.90;;;;;;6220441;23;19905;-77
2023/02/17 00:32:30;;;;;;;;;;;12.50;99.90;;;;;;6093211;23;19918;-78
2023/02/17 00:34:57;;;;;;;;;;;12.40;99.90;;;;;;6220002;23;19912;-78
2023/02/17 00:37:23;;;;;;;;;;;12.40;99.90;;;;;;6093689;23;20288;-78
2023/02/17 00:39:48;;;;;;;;;;;12.40;99.90;;;;;;6220436;23;19910;-78
2023/02/17 00:42:14;;;;;;;;;;;12.40;99.90;;;;;;6094294;23;19913;-81
2023/02/17 00:44:39;;;;;;;;;;;12.40;99.90;;;;;;6094090;23;19909;-81
2023/02/17 00:47:11;;;;;;;;;;;12.40;99.90;;;;;;6196289;23;20176;-81
2023/02/17 00:49:37;;;;;;;;;;;12.40;99.90;;;;;;6195500;23;19906;-78
2023/02/17 00:52:02;;;;;;;;;;;12.40;99.90;;;;;;6221001;23;19917;-81
2023/02/17 00:54:28;;;;;;;;;;;12.50;99.90;;;;;;6195662;23;19905;-80
2023/02/17 00:56:53;;;;;;;;;;;12.40;99.90;;;;;;6221728;23;19909;-81
2023/02/17 00:59:19;;;;;;;;;;;12.40;99.90;;;;;;6222139;23;19945;-81
2023/02/17 01:01:45;;;;;;;;;;;12.30;99.90;;;;;;6098765;23;19975;-81
2023/02/17 01:04:10;;;;;;;;;;;12.40;99.90;;;;;;6229880;23;19906;-81
2023/02/17 01:06:37;;;;;;;;;;;12.30;99.90;;;;;;6228053;23;19980;-82
2023/02/17 01:09:03;;;;;;;;;;;12.30;99.90;;;;;;6232451;23;19906;-81
2023/02/17 01:11:30;;;;;;;;;;;12.30;99.90;;;;;;6103286;23;19996;-80
2023/02/17 01:13:58;;;;;;;;;;;12.30;99.90;;;;;;6101022;23;20322;-81
2023/02/17 01:16:28;;;;;;;;;;;12.20;99.90;;;;;;6224371;23;19905;-81
2023/02/17 01:18:54;;;;;;;;;;;12.20;99.90;;;;;;6097512;23;19905;-82
2023/02/17 01:21:23;;;;;;;;;;;12.20;99.90;;;;;;6097274;23;19909;-81
2023/02/17 01:23:54;;;;;;;;;;;12.20;99.90;;;;;;6223283;23;19945;-81
2023/02/17 01:26:21;;;;;;;;;;;12.30;99.90;;;;;;6223338;23;19909;-81
2023/02/17 01:28:46;;;;;;;;;;;12.30;99.90;;;;;;6097267;23;19905;-81
2023/02/17 01:31:12;;;;;;;;;;;12.20;99.90;;;;;;6096507;23;19963;-79
2023/02/17 01:33:38;;;;;;;;;;;12.20;99.90;;;;;;6096893;23;20325;-79
2023/02/17 01:36:04;;;;;;;;;;;12.30;99.90;;;;;;6097539;23;19912;-81
2023/02/17 01:38:30;;;;;;;;;;;12.30;99.90;;;;;;6222672;22;19936;-79
2023/02/17 01:40:56;;;;;;;;;;;12.20;99.90;;;;;;6222941;23;19971;-79
2023/02/17 01:43:21;;;;;;;;;;;12.30;99.90;;;;;;6096865;23;20372;-79
2023/02/17 01:45:51;;;;;;;;;;;12.30;99.90;;;;;;6096984;23;19905;-79
2023/02/17 01:48:21;;;;;;;;;;;12.30;99.90;;;;;;6096320;23;20340;-79
2023/02/17 01:50:49;;;;;;;;;;;12.30;99.90;;;;;;6096559;23;19909;-79
2023/02/17 01:53:19;;;;;;;;;;;12.30;99.90;;;;;;6221595;23;19905;-81
2023/02/17 01:55:45;;;;;;;;;;;12.30;99.90;;;;;;6096456;23;20249;-79
2023/02/17 01:58:12;;;;;;;;;;;12.30;99.90;;;;;;6222610;22;19905;-79
2023/02/17 02:00:38;;;;;;;;;;;12.40;99.90;;;;;;6097268;23;19967;-79
2023/02/17 02:03:11;;;;;;;;;;;12.30;99.90;;;;;;6222735;23;19906;-79
2023/02/17 02:05:38;;;;;;;;;;;12.20;99.90;;;;;;6223366;23;19913;-79
2023/02/17 02:08:03;;;;;;;;;;;12.30;99.90;;;;;;6096853;23;19952;-79
2023/02/17 02:10:31;;;;;;;;;;;12.20;99.90;;;;;;6096154;23;20124;-81
2023/02/17 02:13:06;;;;;;;;;;;12.30;99.90;;;;;;6221969;23;19912;-79
2023/02/17 02:15:58;;;;;;;;;;;12.30;99.90;;;;;;6222593;23;19991;-78
2023/02/17 02:18:35;;;;;;;;;;;12.30;99.90;;;;;;6191675;23;19910;-81
2023/02/17 02:21:19;;;;;;;;;;;12.30;99.90;;;;;;6221908;23;20249;-81
2023/02/17 02:23:49;;;;;;;;;;;12.30;99.90;;;;;;6096075;23;19906;-81
2023/02/17 02:26:29;;;;;;;;;;;12.30;99.90;;;;;;6095988;23;19909;-81
2023/02/17 02:29:10;;;;;;;;;;;12.30;99.90;;;;;;6222373;22;19929;-79
2023/02/17 02:31:54;;;;;;;;;;;12.30;99.90;;;;;;6095861;23;19909;-79
2023/02/17 02:34:21;;;;;;;;;;;12.30;99.90;;;;;;6222226;23;19913;-79
2023/02/17 02:36:55;;;;;;;;;;;12.20;99.90;;;;;;6221813;23;19905;-79
2023/02/17 02:39:23;;;;;;;;;;;12.20;99.90;;;;;;6095720;23;19905;-78
2023/02/17 02:41:51;;;;;;;;;;;12.20;99.90;;;;;;6221680;23;19913;-80
2023/02/17 02:44:18;;;;;;;;;;;12.20;99.90;;;;;;6095379;23;19912;-81
2023/02/17 02:46:44;;;;;;;;;;;12.20;99.90;;;;;;6095403;23;19959;-79
2023/02/17 02:49:10;;;;;;;;;;;12.20;99.90;;;;;;6222116;23;19909;-78
2023/02/17 02:51:41;;;;;;;;;;;12.20;99.90;;;;;;6221944;23;20226;-79
2023/02/17 02:54:07;;;;;;;;;;;12.20;99.90;;;;;;6221696;23;19906;-81
2023/02/17 02:56:48;;;;;;;;;;;12.20;99.90;;;;;;6221197;23;19905;-81
2023/02/17 02:59:13;;;;;;;;;;;12.30;99.90;;;;;;6221351;23;19909;-79
2023/02/17 03:01:57;;;;;;;;;;;12.30;99.90;;;;;;6095194;23;19906;-82
2023/02/17 03:04:25;;;;;;;;;;;12.30;99.90;;;;;;6221509;23;19992;-81
2023/02/17 03:06:52;;;;;;;;;;;12.30;99.90;;;;;;6220782;23;19913;-81
2023/02/17 03:09:20;;;;;;;;;;;12.20;99.90;;;;;;6220477;23;19906;-80
2023/02/17 03:11:46;;;;;;;;;;;12.20;99.90;;;;;;6220428;23;19945;-80
2023/02/17 03:14:13;;;;;;;;;;;12.30;99.90;;;;;;6221500;23;19967;-81
2023/02/17 03:16:39;;;;;;;;;;;12.20;99.90;;;;;;6094807;23;19927;-81
2023/02/17 03:19:05;;;;;;;;;;;12.30;99.90;;;;;;6095361;23;19936;-79
2023/02/17 03:21:36;;;;;;;;;;;12.30;99.90;;;;;;6221124;23;19913;-79
2023/02/17 03:24:02;;;;;;;;;;;12.30;99.90;;;;;;6094727;23;19988;-79
2023/02/17 03:26:27;;;;;;;;;;;12.30;99.90;;;;;;6220790;23;19959;-79
2023/02/17 03:28:53;;;;;;;;;;;12.20;99.90;;;;;;6220925;22;19988;-79
2023/02/17 03:31:18;;;;;;;;;;;12.30;99.90;;;;;;6195350;23;19975;-79
2023/02/17 03:33:44;;;;;;;;;;;12.20;99.90;;;;;;6094371;23;19913;-79
2023/02/17 03:36:09;;;;;;;;;;;12.20;99.90;;;;;;6094767;23;19959;-79
2023/02/17 03:38:35;;;;;;;;;;;12.20;99.90;;;;;;6194745;23;19912;-79
2023/02/17 03:41:00;;;;;;;;;;;12.20;99.90;;;;;;6220943;23;19906;-78
2023/02/17 03:43:25;;;;;;;;;;;12.20;99.90;;;;;;6221004;23;19932;-79
2023/02/17 03:45:51;;;;;;;;;;;12.20;99.90;;;;;;6094222;23;19905;-79
2023/02/17 03:48:16;;;;;;;;;;;12.20;99.90;;;;;;6094916;23;19960;-79
2023/02/17 03:50:42;;;;;;;;;;;12.20;99.90;;;;;;6220308;23;20242;-79
2023/02/17 03:53:09;;;;;;;;;;;12.20;99.90;;;;;;6093999;23;19905;-81
2023/02/17 03:55:34;;;;;;;;;;;12.20;99.90;;;;;;6094434;23;19981;-81
2023/02/17 03:58:00;;;;;;;;;;;12.20;99.90;;;;;;6219947;22;19905;-81
2023/02/17 04:00:25;;;;;;;;;;;12.30;99.90;;;;;;6094287;23;19905;-81
2023/02/17 04:02:51;;;;;;;;;;;12.30;99.90;;;;;;6194468;23;19951;-78
2023/02/17 04:05:16;;;;;;;;;;;12.40;99.90;;;;;;6220658;23;20337;-81
2023/02/17 04:07:42;;;;;;;;;;;12.20;99.90;;;;;;6093989;23;20384;-81
2023/02/17 04:10:08;;;;;;;;;;;12.30;99.90;;;;;;6094067;23;19909;-81
2023/02/17 04:12:33;;;;;;;;;;;12.30;99.90;;;;;;6093942;23;20314;-79
2023/02/17 04:14:58;;;;;;;;;;;12.30;99.90;;;;;;6094218;23;19905;-79
2023/02/17 04:17:24;;;;;;;;;;;12.30;99.90;;;;;;6219852;22;19906;-79
2023/02/17 04:19:49;;;;;;;;;;;12.40;99.90;;;;;;6194982;23;19914;-81
2023/02/17 04:22:15;;;;;;;;;;;12.40;99.90;;;;;;6094564;23;19940;-81
2023/02/17 04:24:40;;;;;;;;;;;12.40;99.90;;;;;;6221384;23;19912;-81
2023/02/17 04:27:06;;;;;;;;;;;12.40;99.90;;;;;;6094386;23;19906;-81
2023/02/17 04:29:31;;;;;;;;;;;12.40;99.90;;;;;;6196308;23;19905;-81
2023/02/17 04:31:57;;;;;;;;;;;12.40;99.90;;;;;;6220736;23;19920;-82
2023/02/17 04:34:22;;;;;;;;;;;12.40;99.90;;;;;;6094958;23;19905;-81
2023/02/17 04:36:51;;;;;;;;;;;12.40;99.90;;;;;;6221187;23;19913;-81
2023/02/17 04:39:17;;;;;;;;;;;12.40;99.90;;;;;;6222565;23;19905;-81
2023/02/17 04:41:43;;;;;;;;;;;12.40;99.90;;;;;;6222001;23;19905;-80
2023/02/17 04:44:08;;;;;;;;;;;12.40;99.90;;;;;;6222362;23;19951;-82
2023/02/17 04:46:33;;;;;;;;;;;12.40;99.90;;;;;;6221484;23;19994;-82
2023/02/17 04:48:59;;;;;;;;;;;12.40;99.90;;;;;;6196370;23;20388;-81
2023/02/17 04:51:24;;;;;;;;;;;12.40;99.90;;;;;;6094706;23;19916;-79
2023/02/17 04:53:50;;;;;;;;;;;12.40;99.90;;;;;;6096110;23;19929;-81
2023/02/17 04:56:15;;;;;;;;;;;12.30;99.90;;;;;;6221633;23;20363;-80
2023/02/17 04:58:41;;;;;;;;;;;12.30;99.90;;;;;;6095484;23;19912;-81
2023/02/17 05:01:06;;;;;;;;;;;12.40;99.90;;;;;;6094847;23;20060;-78
2023/02/17 05:03:32;;;;;;;;;;;12.40;99.90;;;;;;6196383;23;19921;-81
2023/02/17 05:05:57;;;;;;;;;;;12.40;99.90;;;;;;6095226;23;19937;-81
2023/02/17 05:08:23;;;;;;;;;;;12.40;99.90;;;;;;6095748;23;20284;-81
2023/02/17 05:10:51;;;;;;;;;;;12.40;99.90;;;;;;6094494;23;19909;-81
2023/02/17 05:13:17;;;;;;;;;;;12.40;99.90;;;;;;6095210;23;19912;-81
2023/02/17 05:15:46;;;;;;;;;;;12.40;99.90;;;;;;6095696;23;19937;-81
2023/02/17 05:18:12;;;;;;;;;;;12.40;99.90;;;;;;6221264;22;19916;-82
2023/02/17 05:20:37;;;;;;;;;;;12.50;99.90;;;;;;6095141;23;20373;-81
2023/02/17 05:23:03;;;;;;;;;;;12.50;99.90;;;;;;6220902;23;20237;-81
2023/02/17 05:25:29;;;;;;;;;;;12.50;99.90;;;;;;6221178;23;19913;-81
2023/02/17 05:27:54;;;;;;;;;;;12.40;99.90;;;;;;6220741;22;19906;-81
2023/02/17 05:30:20;;;;;;;;;;;12.40;99.90;;;;;;6094733;23;19954;-81
2023/02/17 05:32:45;;;;;;;;;;;12.40;99.90;;;;;;6220777;23;19963;-80
2023/02/17 05:35:11;;;;;;;;;;;12.40;99.90;;;;;;6230664;23;19920;-80
2023/02/17 05:37:36;;;;;;;;;;;12.50;99.90;;;;;;6229458;22;19927;-81
2023/02/17 05:40:02;;;;;;;;;;;12.40;99.90;;;;;;6199300;23;19905;-81
2023/02/17 05:42:28;;;;;;;;;;;12.50;99.90;;;;;;6098023;23;19905;-81
2023/02/17 05:44:54;;;;;;;;;;;12.40;99.90;;;;;;6098386;23;19913;-81
2023/02/17 05:47:20;;;;;;;;;;;12.40;99.90;;;;;;6223918;22;20352;-82
2023/02/17 05:49:45;;;;;;;;;;;12.40;99.90;;;;;;6223994;23;19906;-81
2023/02/17 05:52:11;;;;;;;;;;;12.40;99.90;;;;;;6197839;23;20383;-81
2023/02/17 05:54:36;;;;;;;;;;;12.40;99.90;;;;;;6197654;23;20215;-81
2023/02/17 05:57:02;;;;;;;;;;;12.40;99.90;;;;;;6224956;22;19905;-81
2023/02/17 05:59:27;;;;;;;;;;;12.50;99.90;;;;;;6122227;23;19954;-81
2023/02/17 06:01:52;;;;;;;;;;;12.50;99.90;;;;;;6096175;23;19905;-80
2023/02/17 06:04:18;;;;;;;;;;;12.50;99.90;;;;;;6122057;23;19905;-81
2023/02/17 06:06:43;;;;;;;;;;;12.40;99.90;;;;;;6096590;23;19920;-80
2023/02/17 06:09:09;;;;;;;;;;;12.40;99.90;;;;;;6122096;23;19955;-81
2023/02/17 06:11:34;;;;;;;;;;;12.50;99.90;;;;;;6121768;23;19920;-81
2023/02/17 06:14:00;;;;;;;;;;;12.50;99.90;;;;;;6122236;23;19990;-81
2023/02/17 06:16:25;;;;;;;;;;;12.50;99.90;;;;;;6122751;23;19905;-80
2023/02/17 06:18:51;;;;;;;;;;;12.50;99.90;;;;;;6122300;23;19979;-81
2023/02/17 06:21:16;;;;;;;;;;;12.50;99.90;;;;;;6122417;23;19960;-80
2023/02/17 06:23:42;;;;;;;;;;;12.50;99.90;;;;;;6122837;23;19909;-81
2023/02/17 06:26:07;;;;;;;;;;;12.50;99.90;;;;;;6122367;23;19909;-81
2023/02/17 06:28:32;;;;;;;;;;;12.50;99.90;;;;;;6122315;23;19929;-80
2023/02/17 06:30:58;;;;;;;;;;;12.50;99.90;;;;;;6121941;23;19909;-81
2023/02/17 06:33:23;;;;;;;;;;;12.50;99.90;;;;;;6122808;23;19905;-81
2023/02/17 06:35:50;;;;;;;;;;;12.40;99.90;;;;;;6123191;23;19909;-82
2023/02/17 06:38:16;;;;;;;;;;;12.40;99.90;;;;;;6121840;23;20321;-81
2023/02/17 06:40:41;;;;;;;;;;;12.50;99.90;;;;;;6122065;23;19915;-80
2023/02/17 06:43:07;;;;;;;;;;;12.50;99.90;;;;;;6121282;23;19992;-81
2023/02/17 06:45:32;;;;;;;;;;;12.50;99.90;;;;;;6120953;22;19905;-81
2023/02/17 06:47:58;;;;;;;;;;;12.50;99.90;;;;;;6122219;23;19905;-81
2023/02/17 06:50:23;;;;;;;;;;;12.50;99.90;;;;;;6122331;23;19905;-81
2023/02/17 06:52:49;;;;;;;;;;;12.50;99.90;;;;;;6121727;23;19958;-80
2023/02/17 06:55:14;;;;;;;;;;;12.50;99.90;;;;;;6122042;23;19928;-81
2023/02/17 06:57:39;;;;;;;;;;;12.60;99.90;;;;;;6121826;23;19920;-81
2023/02/17 07:00:05;;;;;;;;;;;12.50;99.90;;;;;;6122354;23;19905;-81
2023/02/17 07:02:31;;;;;;;;;;;12.50;99.90;;;;;;6095610;23;19905;-81
2023/02/17 07:04:56;;;;;;;;;;;12.60;99.90;;;;;;6121978;23;19912;-81
2023/02/17 07:07:22;;;;;;;;;;;12.50;99.90;;;;;;6121774;23;19909;-81
2023/02/17 07:09:47;;;;;;;;;;;12.60;99.90;;;;;;6096077;23;20264;-80
2023/02/17 07:12:13;;;;;;;;;;;12.60;99.90;;;;;;6121670;23;19974;-81
2023/02/17 07:14:38;;;;;;;;;;;12.50;99.90;;;;;;6120542;22;19905;-81
2023/02/17 07:17:04;;;;;;;;;;;12.50;99.90;;;;;;6095894;23;19982;-81
2023/02/17 07:19:29;;;;;;;;;;;12.50;99.90;;;;;;6121854;23;19951;-81
2023/02/17 07:21:55;;;;;;;;;;;12.50;99.90;;;;;;6121775;23;20214;-81
2023/02/17 07:24:20;;;;;;;;;;;12.50;99.90;;;;;;6120328;22;19905;-82
2023/02/17 07:26:47;;;;;;;;;;;12.60;99.90;;;;;;6095773;23;19912;-80
2023/02/17 07:29:12;;;;;;;;;;;12.60;99.90;;;;;;6121593;23;19905;-81
2023/02/17 07:31:38;;;;;;;;;;;12.50;99.90;;;;;;6121002;23;19936;-81
2023/02/17 07:34:03;;;;;;;;;;;12.50;99.90;;;;;;6122009;23;19905;-81
2023/02/17 07:36:29;;;;;;;;;;;12.50;99.90;;;;;;6122221;23;19939;-81
2023/02/17 07:38:55;;;;;;;;;;;12.50;99.90;;;;;;6121751;23;20404;-81
2023/02/17 07:41:21;;;;;;;;;;;12.60;99.90;;;;;;6120000;22;20333;-81
2023/02/17 07:43:51;;;;;;;;;;;12.60;99.90;;;;;;6121394;22;20273;-81
2023/02/17 07:46:17;;;;;;;;;;;12.60;99.90;;;;;;6121210;23;19912;-81
2023/02/17 07:48:42;;;;;;;;;;;12.70;99.90;;;;;;6121453;23;19905;-81
2023/02/17 07:51:14;;;;;;;;;;;12.80;99.90;;;;;;6121208;23;19962;-82
2023/02/17 07:53:39;;;;;;;;;;;12.70;99.90;;;;;;6121674;23;19906;-81
2023/02/17 07:56:06;;;;;;;;;;;12.80;99.90;;;;;;6122763;23;19912;-80
2023/02/17 07:58:32;;;;;;;;;;;12.90;99.90;;;;;;6096397;23;19986;-81
2023/02/17 08:00:57;;;;;;;;;;;12.90;99.90;;;;;;6096519;23;19936;-82
2023/02/17 08:03:23;;;;;;;;;;;12.90;99.90;;;;;;6123349;23;19909;-82
2023/02/17 08:05:50;;;;;;;;;;;12.90;99.90;;;;;;6123832;23;19905;-82
2023/02/17 08:13:44;;;;;;;;;;;13.00;99.90;;;;;;6122611;23;20031;-81
2023/02/17 08:16:09;;;;;;;;;;;13.00;99.90;;;;;;6122900;23;20347;-82
2023/02/17 08:18:35;;;;;;;;;;;13.00;99.90;;;;;;6122986;23;19987;-81
2023/02/17 08:21:00;;;;;;;;;;;13.00;99.90;;;;;;6122378;23;19955;-81
2023/02/17 08:23:26;;;;;;;;;;;13.10;99.90;;;;;;6096341;23;19905;-81
2023/02/17 08:25:51;;;;;;;;;;;13.20;99.90;;;;;;6122389;23;19944;-82
2023/02/17 08:28:17;;;;;;;;;;;13.20;99.90;;;;;;6122424;23;19974;-81
2023/02/17 08:30:42;;;;;;;;;;;13.20;99.90;;;;;;6122571;23;19916;-81
2023/02/17 08:33:08;;;;;;;;;;;13.20;99.90;;;;;;6096146;23;20226;-82
2023/02/17 08:35:33;;;;;;;;;;;13.10;99.90;;;;;;6122670;23;19955;-82
2023/02/17 08:37:59;;;;;;;;;;;13.20;99.90;;;;;;6122149;23;20380;-82
2023/02/17 08:40:24;;;;;;;;;;;13.10;99.90;;;;;;6096352;23;19991;-82
2023/02/17 08:42:50;;;;;;;;;;;13.20;99.90;;;;;;6120438;22;20241;-82
2023/02/17 08:45:15;;;;;;;;;;;13.20;99.90;;;;;;6122320;23;20317;-81
2023/02/17 08:47:41;;;;;;;;;;;13.30;99.90;;;;;;6122187;23;19909;-83
2023/02/17 08:50:07;;;;;;;;;;;13.30;99.90;;;;;;6122172;23;19905;-81
2023/02/17 08:52:33;;;;;;;;;;;13.30;99.90;;;;;;6121728;23;19913;-82
2023/02/17 08:54:59;;;;;;;;;;;13.40;99.90;;;;;;6122544;23;19912;-82
2023/02/17 08:57:25;;;;;;;;;;;13.40;99.90;;;;;;6121957;22;19984;-82
2023/02/17 08:59:51;;;;;;;;;;;13.50;99.90;;;;;;6122382;23;19980;-82
2023/02/17 09:02:17;;;;;;;;;;;13.50;99.90;;;;;;6122212;23;19912;-83
2023/02/17 09:04:42;;;;;;;;;;;13.60;99.90;;;;;;6096537;23;20340;-82
2023/02/17 09:07:09;;;;;;;;;;;13.60;99.90;;;;;;6121911;23;19928;-82
2023/02/17 09:09:34;;;;;;;;;;;13.80;99.90;;;;;;6096494;23;19927;-83
2023/02/17 09:12:00;;;;;;;;;;;13.90;99.90;;;;;;6121820;23;19944;-83
2023/02/17 09:14:26;;;;;;;;;;;13.90;99.90;;;;;;6122196;23;20279;-81
2023/02/17 09:16:52;;;;;;;;;;;14.10;99.90;;;;;;6096041;23;19909;-81
2023/02/17 09:19:19;;;;;;;;;;;14.10;99.90;;;;;;6122767;23;19976;-81
2023/02/17 09:21:45;;;;;;;;;;;14.10;99.90;;;;;;6120542;23;19916;-83
2023/02/17 09:24:11;;;;;;;;;;;14.30;99.90;;;;;;6119891;23;19909;-82
2023/02/17 09:26:36;;;;;;;;;;;14.30;99.90;;;;;;6121699;23;19989;-82
2023/02/17 09:29:02;;;;;;;;;;;14.40;99.90;;;;;;6096005;23;19905;-82
2023/02/17 09:31:28;;;;;;;;;;;14.50;99.90;;;;;;6121772;23;19913;-81
2023/02/17 09:33:54;;;;;;;;;;;14.60;99.90;;;;;;6122417;23;19940;-83
2023/02/17 09:36:20;;;;;;;;;;;14.60;99.90;;;;;;6095920;23;20218;-83
2023/02/17 09:38:46;;;;;;;;;;;14.50;99.90;;;;;;6095546;23;19912;-83
2023/02/17 09:41:22;;;;;;;;;;;14.60;99.90;;;;;;6121742;23;19906;-82
2023/02/17 09:43:49;;;;;;;;;;;14.70;99.90;;;;;;6121989;23;19975;-82
2023/02/17 09:46:19;;;;;;;;;;;14.90;99.90;;;;;;6096245;23;19908;-82
2023/02/17 09:48:46;;;;;;;;;;;14.90;99.90;;;;;;6121866;23;19913;-81
2023/02/17 09:51:35;;;;;;;;;;;15.10;99.90;;;;;;6095120;23;19920;-81
2023/02/17 09:54:09;;;;;;;;;;;15.20;99.90;;;;;;6125710;23;20249;-81
2023/02/17 09:56:37;;;;;;;;;;;15.20;99.90;;;;;;6121912;23;20395;-82
2023/02/17 09:59:26;;;;;;;;;;;15.20;99.90;;;;;;6121581;22;19994;-81
2023/02/17 10:01:52;;;;;;;;;;;15.40;99.90;;;;;;6122115;23;20371;-83
2023/02/17 10:04:19;;;;;;;;;;;15.50;99.90;;;;;;6094121;23;19959;-83
2023/02/17 10:06:47;;;;;;;;;;;15.40;99.90;;;;;;6116729;23;19905;-82
2023/02/17 10:09:18;;;;;;;;;;;15.60;99.90;;;;;;6095108;23;19976;-82
2023/02/17 10:12:02;;;;;;;;;;;15.60;99.90;;;;;;6121477;23;19909;-82
2023/02/17 10:14:31;;;;;;;;;;;15.70;99.90;;;;;;6121909;23;19936;-81
2023/02/17 10:17:09;;;;;;;;;;;15.90;99.90;;;;;;6121430;23;19905;-82
2023/02/17 10:19:36;;;;;;;;;;;16.00;99.90;;;;;;6121456;23;19905;-83
2023/02/17 10:22:07;;;;;;;;;;;15.90;99.90;;;;;;6121626;23;20356;-82
2023/02/17 10:24:33;;;;;;;;;;;15.90;99.90;;;;;;6095643;23;19909;-82
2023/02/17 10:27:37;;;;;;;;;;;16.00;99.90;;;;;;6121659;23;20244;-82
2023/02/17 10:30:17;;;;;;;;;;;16.20;99.90;;;;;;6152545;23;19905;-82
2023/02/17 10:33:09;;;;;;;;;;;16.20;99.90;;;;;;6127519;23;19908;-82
2023/02/17 10:35:39;;;;;;;;;;;16.30;99.90;;;;;;6128163;23;20233;-83
2023/02/17 10:38:11;;;;;;;;;;;16.40;99.90;;;;;;6121623;23;20321;-81
2023/02/17 10:40:37;;;;;;;;;;;16.50;99.90;;;;;;6121718;23;19912;-81
2023/02/17 10:43:06;;;;;;;;;;;16.80;99.90;;;;;;6122349;23;19905;-83
2023/02/17 10:45:32;;;;;;;;;;;17.00;99.90;;;;;;6122755;23;19984;-83
2023/02/17 10:48:02;;;;;;;;;;;17.00;99.90;;;;;;6122992;23;19905;-82
2023/02/17 10:50:29;;;;;;;;;;;17.20;99.90;;;;;;6121814;23;19905;-83
2023/02/17 10:52:55;;;;;;;;;;;17.20;99.90;;;;;;6121493;23;19909;-81
2023/02/17 10:55:20;;;;;;;;;;;17.10;99.90;;;;;;6121711;23;19905;-83
2023/02/17 10:57:47;;;;;;;;;;;17.00;99.90;;;;;;6121883;23;19935;-82
2023/02/17 11:00:17;;;;;;;;;;;17.00;99.90;;;;;;6122394;23;20248;-82
2023/02/17 11:02:47;;;;;;;;;;;17.10;99.90;;;;;;6121571;23;20232;-82
2023/02/17 11:05:38;;;;;;;;;;;17.40;99.90;;;;;;6121729;23;19912;-81
2023/02/17 11:08:06;;;;;;;;;;;17.30;99.90;;;;;;6096539;23;19943;-83
2023/02/17 11:10:36;;;;;;;;;;;17.30;99.90;;;;;;6121294;23;20341;-82
2023/02/17 11:13:02;;;;;;;;;;;17.30;99.90;;;;;;6121197;23;19936;-82
2023/02/17 11:15:43;;;;;;;;;;;17.20;99.90;;;;;;6121440;23;19911;-83
2023/02/17 11:18:11;;;;;;;;;;;17.20;99.90;;;;;;6122295;23;19905;-82
2023/02/17 11:20:36;;;;;;;;;;;17.10;99.90;;;;;;6120151;23;19905;-82
2023/02/17 11:23:05;;;;;;;;;;;17.10;99.90;;;;;;6120615;23;19912;-82
2023/02/17 11:25:32;;;;;;;;;;;17.10;99.90;;;;;;6121611;23;19962;-82
2023/02/17 11:27:59;;;;;;;;;;;17.20;99.90;;;;;;6095350;23;20317;-82
2023/02/17 11:30:26;;;;;;;;;;;17.20;99.90;;;;;;6096821;23;19932;-82
2023/02/17 11:32:53;;;;;;;;;;;17.20;99.90;;;;;;6122201;23;19913;-82
2023/02/17 11:35:24;;;;;;;;;;;17.10;99.90;;;;;;6122781;23;19944;-81
2023/02/17 11:37:52;;;;;;;;;;;17.00;99.90;;;;;;6122619;23;19958;-82
2023/02/17 11:40:24;;;;;;;;;;;17.10;99.90;;;;;;6096600;23;19913;-82
2023/02/17 11:43:00;;;;;;;;;;;17.00;99.90;;;;;;6122426;23;19905;-81
2023/02/17 11:45:40;;;;;;;;;;;17.30;99.90;;;;;;6122652;23;19927;-82
2023/02/17 11:48:19;;;;;;;;;;;18.10;99.90;;;;;;6122551;23;19912;-82
2023/02/17 11:50:54;;;;;;;;;;;18.20;99.90;;;;;;6121405;23;19951;-84
2023/02/17 11:53:37;;;;;;;;;;;17.70;99.90;;;;;;6096659;23;19912;-83
2023/02/17 11:56:09;;;;;;;;;;;17.70;99.90;;;;;;6119282;22;19909;-85
2023/02/17 11:58:53;;;;;;;;;;;18.20;99.90;;;;;;6122790;22;19925;-84
2023/02/17 12:01:19;;;;;;;;;;;17.90;99.90;;;;;;6118926;23;19944;-84
2023/02/17 12:04:03;;;;;;;;;;;18.00;99.90;;;;;;6119861;23;19905;-84
2023/02/17 12:06:35;;;;;;;;;;;18.20;99.90;;;;;;6119666;23;19904;-84
2023/02/17 12:09:24;;;;;;;;;;;18.80;99.90;;;;;;6119674;23;19905;-84
2023/02/17 12:12:08;;;;;;;;;;;19.60;99.90;;;;;;6093429;23;19952;-85
2023/02/17 12:14:51;;;;;;;;;;;19.30;99.90;;;;;;6117908;23;19912;-84
2023/02/17 12:17:24;;;;;;;;;;;19.50;99.90;;;;;;6095670;23;20230;-84
2023/02/17 12:20:06;;;;;;;;;;;19.10;99.90;;;;;;6121754;23;19914;-84
2023/02/17 12:22:34;;;;;;;;;;;18.80;99.90;;;;;;6119165;23;20248;-84
2023/02/17 12:25:13;;;;;;;;;;;19.00;99.90;;;;;;6120318;23;19905;-84
2023/02/17 12:27:39;;;;;;;;;;;18.50;99.90;;;;;;6121632;23;19951;-84
2023/02/17 12:30:23;;;;;;;;;;;18.50;99.90;;;;;;6119371;23;19905;-83
2023/02/17 12:33:07;;;;;;;;;;;19.60;99.90;;;;;;6119988;23;20210;-84
2023/02/17 12:35:41;;;;;;;;;;;20.10;99.90;;;;;;6093618;23;19911;-84
2023/02/17 12:38:12;;;;;;;;;;;19.80;99.90;;;;;;6119755;23;19988;-83
2023/02/17 12:40:40;;;;;;;;;;;19.10;99.90;;;;;;6095359;23;19955;-83
2023/02/17 12:43:25;;;;;;;;;;;18.70;99.90;;;;;;6095642;23;19905;-83
2023/02/17 12:45:52;;;;;;;;;;;18.70;99.90;;;;;;6095762;23;20022;-84
2023/02/17 12:48:32;;;;;;;;;;;19.20;99.90;;;;;;6095870;23;19940;-83
2023/02/17 12:51:10;;;;;;;;;;;19.80;99.90;;;;;;6095303;23;19973;-83
2023/02/17 12:53:47;;;;;;;;;;;19.80;99.90;;;;;;6121966;23;20325;-83
2023/02/17 12:56:27;;;;;;;;;;;20.00;99.90;;;;;;6096193;23;19959;-85
2023/02/17 12:58:55;;;;;;;;;;;20.00;99.90;;;;;;6120338;23;20328;-83
2023/02/17 13:01:23;;;;;;;;;;;19.70;99.90;;;;;;6095656;23;19951;-83
2023/02/17 13:03:48;;;;;;;;;;;19.40;99.90;;;;;;6120631;23;19905;-83
2023/02/17 13:06:23;;;;;;;;;;;19.30;99.90;;;;;;6096103;23;20339;-84
2023/02/17 13:08:56;;;;;;;;;;;19.40;99.90;;;;;;6122207;23;19916;-84
2023/02/17 13:11:33;;;;;;;;;;;20.20;99.90;;;;;;6122322;23;20321;-85
2023/02/17 13:14:17;;;;;;;;;;;20.70;99.90;;;;;;6096549;23;19979;-84
2023/02/17 13:16:43;;;;;;;;;;;20.70;99.90;;;;;;6120219;23;19905;-84
2023/02/17 13:19:09;;;;;;;;;;;20.80;99.90;;;;;;6095540;23;19905;-85
2023/02/17 13:21:34;;;;;;;;;;;19.80;99.90;;;;;;6095482;23;19970;-83
2023/02/17 13:24:07;;;;;;;;;;;20.20;99.90;;;;;;6094483;23;19978;-81
2023/02/17 13:26:34;;;;;;;;;;;20.60;99.90;;;;;;6095481;23;19905;-83
2023/02/17 13:29:26;;;;;;;;;;;21.20;99.90;;;;;;6120109;23;19912;-83
2023/02/17 13:31:53;;;;;;;;;;;21.90;99.90;;;;;;6097956;23;19938;-83
2023/02/17 13:34:26;;;;;;;;;;;20.80;99.90;;;;;;6095532;23;19912;-84
2023/02/17 13:36:53;;;;;;;;;;;20.00;99.90;;;;;;6121654;23;19905;-83
2023/02/17 13:39:29;;;;;;;;;;;19.10;99.90;;;;;;6121471;23;19905;-83
2023/02/17 13:41:55;;;;;;;;;;;18.70;99.90;;;;;;6121894;23;20600;-82
2023/02/17 13:44:28;;;;;;;;;;;18.20;99.90;;;;;;6121765;23;19905;-82
2023/02/17 13:46:59;;;;;;;;;;;18.00;99.90;;;;;;6095784;23;20309;-82
2023/02/17 13:49:26;;;;;;;;;;;17.80;99.90;;;;;;6095913;23;20391;-82
2023/02/17 13:51:53;;;;;;;;;;;17.50;99.90;;;;;;6119170;23;19991;-81
2023/02/17 13:54:19;;;;;;;;;;;17.40;99.90;;;;;;6095772;23;19908;-81
2023/02/17 13:56:50;;;;;;;;;;;17.30;99.90;;;;;;6119995;23;20271;-81
2023/02/17 13:59:17;;;;;;;;;;;17.10;99.90;;;;;;6121388;23;20229;-81
2023/02/17 14:01:43;;;;;;;;;;;16.90;99.90;;;;;;6095224;23;19904;-81
2023/02/17 14:04:29;;;;;;;;;;;16.90;99.90;;;;;;6121604;23;19936;-81
2023/02/17 14:06:56;;;;;;;;;;;16.60;99.90;;;;;;6121498;23;19905;-80
2023/02/17 14:09:24;;;;;;;;;;;16.60;99.90;;;;;;6121280;23;19912;-82
2023/02/17 14:11:50;;;;;;;;;;;16.50;99.90;;;;;;6095121;23;20240;-82
2023/02/17 14:14:15;;;;;;;;;;;16.30;99.90;;;;;;6095756;23;20240;-81
2023/02/17 14:16:43;;;;;;;;;;;16.20;99.90;;;;;;6095587;23;19905;-81
2023/02/17 14:19:17;;;;;;;;;;;16.10;99.90;;;;;;6121394;23;19959;-82
2023/02/17 14:21:44;;;;;;;;;;;16.10;99.90;;;;;;6095081;23;19912;-82
2023/02/17 14:24:24;;;;;;;;;;;16.20;99.90;;;;;;6095422;23;20244;-81
2023/02/17 14:26:49;;;;;;;;;;;16.30;99.90;;;;;;6095574;23;20299;-82
2023/02/17 14:29:15;;;;;;;;;;;16.30;99.90;;;;;;6121309;23;19982;-81